sensor_id;sensor_type;location;lat;lon;timestamp;pressure;altitude;pressure_sealevel;temperature;humidity
60970;BME280;46841;48.938;9.502;2024-01-27T00:00:43;100292.00;;;-2.02;100.00
60970;BME280;46841;48.938;9.502;2024-01-27T00:03:09;100296.44;;;-2.19;100.00
60970;BME280;46841;48.938;9.502;2024-01-27T00:05:34;100294.13;;;-2.24;100.00
60970;BME280;46841;48.938;9.502;2024-01-27T00:07:59;100291.38;;;-2.50;100.00
60970;BME280;46841;48.938;9.502;2024-01-27T00:10:25;100291.97;;;-2.11;100.00
60970;BME280;46841;48.938;9.502;2024-01-27T00:12:50;100300.38;;;-2.31;100.00
60970;BME280;46841;48.938;9.502;2024-01-27T00:15:16;100297.47;;;-2.34;100.00
60970;BME280;46841;48.938;9.502;2024-01-27T00:17:41;100300.38;;;-2.31;100.00
60970;BME280;46841;48.938;9.502;2024-01-27T00:20:08;100315.19;;;-2.56;100.00
60970;BME280;46841;48.938;9.502;2024-01-27T00:22:34;100316.91;;;-2.48;100.00
60970;BME280;46841;48.938;9.502;2024-01-27T00:24:59;100316.94;;;-2.72;100.00
60970;BME280;46841;48.938;9.502;2024-01-27T00:27:24;100312.03;;;-2.69;100.00
60970;BME280;46841;48.938;9.502;2024-01-27T00:29:50;100316.19;;;-2.71;100.00
60970;BME280;46841;48.938;9.502;2024-01-27T00:32:15;100310.16;;;-2.46;100.00
60970;BME280;46841;48.938;9.502;2024-01-27T00:34:41;100324.66;;;-2.65;100.00
60970;BME280;46841;48.938;9.502;2024-01-27T00:37:06;100320.69;;;-2.62;100.00
60970;BME280;46841;48.938;9.502;2024-01-27T00:39:32;100322.59;;;-2.76;100.00
60970;BME280;46841;48.938;9.502;2024-01-27T00:41:58;100321.03;;;-2.50;100.00
60970;BME280;46841;48.938;9.502;2024-01-27T00:44:24;100321.91;;;-2.91;100.00
60970;BME280;46841;48.938;9.502;2024-01-27T00:46:50;100320.25;;;-3.06;100.00
60970;BME280;46841;48.938;9.502;2024-01-27T00:49:15;100317.03;;;-2.79;100.00
60970;BME280;46841;48.938;9.502;2024-01-27T00:51:41;100322.31;;;-2.95;100.00
60970;BME280;46841;48.938;9.502;2024-01-27T00:54:06;100322.88;;;-3.06;100.00
60970;BME280;46841;48.938;9.502;2024-01-27T00:56:34;100328.72;;;-3.25;100.00
60970;BME280;46841;48.938;9.502;2024-01-27T00:58:59;100326.91;;;-3.01;100.00
60970;BME280;46841;48.938;9.502;2024-01-27T01:01:25;100314.06;;;-3.16;100.00
60970;BME280;46841;48.938;9.502;2024-01-27T01:03:50;100323.41;;;-3.33;100.00
60970;BME280;46841;48.938;9.502;2024-01-27T01:06:16;100322.00;;;-3.39;100.00
60970;BME280;46841;48.938;9.502;2024-01-27T01:08:41;100332.31;;;-3.16;100.00
60970;BME280;46841;48.938;9.502;2024-01-27T01:11:07;100319.31;;;-3.07;100.00
60970;BME280;46841;48.938;9.502;2024-01-27T01:13:32;100323.53;;;-3.00;100.00
60970;BME280;46841;48.938;9.502;2024-01-27T01:15:57;100327.09;;;-3.16;100.00
60970;BME280;46841;48.938;9.502;2024-01-27T01:18:23;100338.38;;;-3.24;100.00
60970;BME280;46841;48.938;9.502;2024-01-27T01:20:48;100344.44;;;-3.32;100.00
60970;BME280;46841;48.938;9.502;2024-01-27T01:23:14;100347.47;;;-3.36;100.00
60970;BME280;46841;48.938;9.502;2024-01-27T01:25:41;100354.88;;;-3.16;100.00
60970;BME280;46841;48.938;9.502;2024-01-27T01:28:06;100352.53;;;-3.38;100.00
60970;BME280;46841;48.938;9.502;2024-01-27T01:30:32;100358.34;;;-3.56;100.00
60970;BME280;46841;48.938;9.502;2024-01-27T01:32:58;100365.56;;;-3.69;100.00
60970;BME280;46841;48.938;9.502;2024-01-27T01:35:23;100359.28;;;-3.40;100.00
60970;BME280;46841;48.938;9.502;2024-01-27T01:37:49;100345.00;;;-3.03;100.00
60970;BME280;46841;48.938;9.502;2024-01-27T01:40:15;100349.16;;;-3.21;100.00
60970;BME280;46841;48.938;9.502;2024-01-27T01:42:41;100358.06;;;-3.19;100.00
60970;BME280;46841;48.938;9.502;2024-01-27T01:45:09;100357.22;;;-3.26;100.00
60970;BME280;46841;48.938;9.502;2024-01-27T01:47:36;100356.50;;;-3.25;100.00
60970;BME280;46841;48.938;9.502;2024-01-27T01:50:01;100354.31;;;-2.89;100.00
60970;BME280;46841;48.938;9.502;2024-01-27T01:52:28;100342.66;;;-3.08;100.00
60970;BME280;46841;48.938;9.502;2024-01-27T01:54:53;100347.28;;;-3.06;100.00
60970;BME280;46841;48.938;9.502;2024-01-27T01:57:19;100349.00;;;-3.38;100.00
60970;BME280;46841;48.938;9.502;2024-01-27T01:59:45;100360.03;;;-3.41;100.00
60970;BME280;46841;48.938;9.502;2024-01-27T02:02:11;100358.03;;;-3.43;100.00
60970;BME280;46841;48.938;9.502;2024-01-27T02:04:44;100363.88;;;-3.21;100.00
60970;BME280;46841;48.938;9.502;2024-01-27T02:07:11;100364.38;;;-3.01;100.00
60970;BME280;46841;48.938;9.502;2024-01-27T02:09:37;100367.88;;;-3.25;100.00
60970;BME280;46841;48.938;9.502;2024-01-27T02:12:04;100377.28;;;-3.50;100.00
60970;BME280;46841;48.938;9.502;2024-01-27T02:14:30;100382.75;;;-3.55;100.00
60970;BME280;46841;48.938;9.502;2024-01-27T02:16:57;100385.19;;;-3.73;100.00
60970;BME280;46841;48.938;9.502;2024-01-27T02:19:23;100391.84;;;-3.52;100.00
60970;BME280;46841;48.938;9.502;2024-01-27T02:21:49;100384.28;;;-3.57;100.00
60970;BME280;46841;48.938;9.502;2024-01-27T02:24:15;100391.66;;;-3.69;100.00
60970;BME280;46841;48.938;9.502;2024-01-27T02:26:41;100390.47;;;-3.64;100.00
60970;BME280;46841;48.938;9.502;2024-01-27T02:29:07;100408.84;;;-3.55;100.00
60970;BME280;46841;48.938;9.502;2024-01-27T02:31:32;100406.47;;;-3.61;100.00
60970;BME280;46841;48.938;9.502;2024-01-27T02:34:00;100414.03;;;-3.71;100.00
60970;BME280;46841;48.938;9.502;2024-01-27T02:36:25;100423.97;;;-3.60;100.00
60970;BME280;46841;48.938;9.502;2024-01-27T02:38:50;100426.84;;;-3.50;100.00
60970;BME280;46841;48.938;9.502;2024-01-27T02:41:17;100416.19;;;-3.44;100.00
60970;BME280;46841;48.938;9.502;2024-01-27T02:43:43;100428.88;;;-3.63;100.00
60970;BME280;46841;48.938;9.502;2024-01-27T02:46:11;100437.63;;;-3.63;100.00
60970;BME280;46841;48.938;9.502;2024-01-27T02:48:40;100443.09;;;-3.52;100.00
60970;BME280;46841;48.938;9.502;2024-01-27T02:51:08;100433.09;;;-3.79;100.00
60970;BME280;46841;48.938;9.502;2024-01-27T02:53:33;100434.75;;;-3.73;100.00
60970;BME280;46841;48.938;9.502;2024-01-27T02:55:59;100440.66;;;-3.51;100.00
60970;BME280;46841;48.938;9.502;2024-01-27T02:58:24;100447.38;;;-3.53;100.00
60970;BME280;46841;48.938;9.502;2024-01-27T03:00:53;100448.94;;;-3.78;100.00
60970;BME280;46841;48.938;9.502;2024-01-27T03:03:19;100448.47;;;-3.90;100.00
60970;BME280;46841;48.938;9.502;2024-01-27T03:05:46;100428.22;;;-3.92;100.00
60970;BME280;46841;48.938;9.502;2024-01-27T03:08:11;100439.25;;;-3.79;100.00
60970;BME280;46841;48.938;9.502;2024-01-27T03:10:36;100438.84;;;-3.75;100.00
60970;BME280;46841;48.938;9.502;2024-01-27T03:13:02;100439.50;;;-4.07;100.00
60970;BME280;46841;48.938;9.502;2024-01-27T03:15:27;100436.44;;;-4.19;100.00
60970;BME280;46841;48.938;9.502;2024-01-27T03:17:53;100434.25;;;-4.23;100.00
60970;BME280;46841;48.938;9.502;2024-01-27T03:20:18;100444.47;;;-4.48;100.00
60970;BME280;46841;48.938;9.502;2024-01-27T03:22:44;100437.13;;;-4.13;100.00
60970;BME280;46841;48.938;9.502;2024-01-27T03:25:09;100443.47;;;-4.11;100.00
60970;BME280;46841;48.938;9.502;2024-01-27T03:27:36;100445.81;;;-3.82;100.00
60970;BME280;46841;48.938;9.502;2024-01-27T03:30:01;100442.59;;;-3.96;100.00
60970;BME280;46841;48.938;9.502;2024-01-27T03:32:31;100443.75;;;-4.01;100.00
60970;BME280;46841;48.938;9.502;2024-01-27T03:35:01;100447.22;;;-4.16;100.00
60970;BME280;46841;48.938;9.502;2024-01-27T03:37:27;100443.44;;;-4.34;100.00
60970;BME280;46841;48.938;9.502;2024-01-27T03:39:53;100439.00;;;-4.35;100.00
60970;BME280;46841;48.938;9.502;2024-01-27T03:42:19;100442.00;;;-4.39;100.00
60970;BME280;46841;48.938;9.502;2024-01-27T03:44:44;100444.63;;;-4.46;100.00
60970;BME280;46841;48.938;9.502;2024-01-27T03:47:10;100449.69;;;-4.48;100.00
60970;BME280;46841;48.938;9.502;2024-01-27T03:49:37;100450.44;;;-4.49;100.00
60970;BME280;46841;48.938;9.502;2024-01-27T03:52:03;100454.72;;;-4.49;100.00
60970;BME280;46841;48.938;9.502;2024-01-27T03:54:29;100459.88;;;-4.42;100.00
60970;BME280;46841;48.938;9.502;2024-01-27T03:56:54;100461.72;;;-4.71;100.00
60970;BME280;46841;48.938;9.502;2024-01-27T03:59:20;100459.28;;;-4.70;100.00
60970;BME280;46841;48.938;9.502;2024-01-27T04:01:45;100466.63;;;-4.81;100.00
60970;BME280;46841;48.938;9.502;2024-01-27T04:04:11;100467.16;;;-4.84;100.00
60970;BME280;46841;48.938;9.502;2024-01-27T04:06:39;100462.41;;;-4.65;100.00
60970;BME280;46841;48.938;9.502;2024-01-27T04:09:04;100464.84;;;-4.67;100.00
60970;BME280;46841;48.938;9.502;2024-01-27T04:11:30;100463.72;;;-4.61;100.00
60970;BME280;46841;48.938;9.502;2024-01-27T04:13:55;100465.38;;;-4.55;100.00
60970;BME280;46841;48.938;9.502;2024-01-27T04:16:21;100466.53;;;-4.37;100.00
60970;BME280;46841;48.938;9.502;2024-01-27T04:18:46;100468.69;;;-4.56;100.00
60970;BME280;46841;48.938;9.502;2024-01-27T04:21:12;100473.94;;;-4.93;100.00
60970;BME280;46841;48.938;9.502;2024-01-27T04:23:37;100471.91;;;-4.66;100.00
60970;BME280;46841;48.938;9.502;2024-01-27T04:26:03;100466.84;;;-4.57;100.00
60970;BME280;46841;48.938;9.502;2024-01-27T04:28:28;100480.13;;;-4.70;100.00
60970;BME280;46841;48.938;9.502;2024-01-27T04:30:55;100476.56;;;-4.63;100.00
60970;BME280;46841;48.938;9.502;2024-01-27T04:33:21;100475.41;;;-4.58;100.00
60970;BME280;46841;48.938;9.502;2024-01-27T04:35:46;100479.03;;;-4.72;100.00
60970;BME280;46841;48.938;9.502;2024-01-27T04:38:12;100475.44;;;-4.65;100.00
60970;BME280;46841;48.938;9.502;2024-01-27T04:40:38;100483.94;;;-4.52;100.00
60970;BME280;46841;48.938;9.502;2024-01-27T04:43:03;100483.00;;;-4.82;100.00
60970;BME280;46841;48.938;9.502;2024-01-27T04:45:30;100477.97;;;-4.51;100.00
60970;BME280;46841;48.938;9.502;2024-01-27T04:47:56;100493.34;;;-4.68;100.00
60970;BME280;46841;48.938;9.502;2024-01-27T04:50:22;100502.59;;;-4.63;100.00
60970;BME280;46841;48.938;9.502;2024-01-27T04:52:47;100499.22;;;-4.55;100.00
60970;BME280;46841;48.938;9.502;2024-01-27T04:55:13;100492.34;;;-4.54;100.00
60970;BME280;46841;48.938;9.502;2024-01-27T04:57:38;100511.03;;;-4.73;100.00
60970;BME280;46841;48.938;9.502;2024-01-27T05:00:04;100501.91;;;-4.69;100.00
60970;BME280;46841;48.938;9.502;2024-01-27T05:02:33;100502.31;;;-4.80;100.00
60970;BME280;46841;48.938;9.502;2024-01-27T05:04:59;100502.88;;;-4.83;100.00
60970;BME280;46841;48.938;9.502;2024-01-27T05:07:24;100505.22;;;-4.70;100.00
60970;BME280;46841;48.938;9.502;2024-01-27T05:09:50;100506.22;;;-4.47;100.00
60970;BME280;46841;48.938;9.502;2024-01-27T05:12:15;100496.03;;;-4.52;100.00
60970;BME280;46841;48.938;9.502;2024-01-27T05:14:44;100501.66;;;-5.01;100.00
60970;BME280;46841;48.938;9.502;2024-01-27T05:17:13;100508.59;;;-5.23;100.00
60970;BME280;46841;48.938;9.502;2024-01-27T05:19:38;100511.31;;;-4.93;100.00
60970;BME280;46841;48.938;9.502;2024-01-27T05:22:04;100510.22;;;-5.02;100.00
60970;BME280;46841;48.938;9.502;2024-01-27T05:24:32;100511.91;;;-5.09;100.00
60970;BME280;46841;48.938;9.502;2024-01-27T05:26:57;100516.34;;;-5.08;100.00
60970;BME280;46841;48.938;9.502;2024-01-27T05:29:23;100519.41;;;-5.34;100.00
60970;BME280;46841;48.938;9.502;2024-01-27T05:31:48;100518.69;;;-5.40;99.68
60970;BME280;46841;48.938;9.502;2024-01-27T05:34:14;100523.50;;;-5.36;100.00
60970;BME280;46841;48.938;9.502;2024-01-27T05:36:40;100525.34;;;-5.42;100.00
60970;BME280;46841;48.938;9.502;2024-01-27T05:39:06;100526.25;;;-5.27;100.00
60970;BME280;46841;48.938;9.502;2024-01-27T05:41:32;100516.13;;;-4.96;100.00
60970;BME280;46841;48.938;9.502;2024-01-27T05:43:58;100516.56;;;-4.70;100.00
60970;BME280;46841;48.938;9.502;2024-01-27T05:46:26;100525.41;;;-4.91;100.00
60970;BME280;46841;48.938;9.502;2024-01-27T05:48:53;100522.69;;;-5.06;100.00
60970;BME280;46841;48.938;9.502;2024-01-27T05:51:22;100530.66;;;-5.05;100.00
60970;BME280;46841;48.938;9.502;2024-01-27T05:53:59;100525.78;;;-4.87;100.00
60970;BME280;46841;48.938;9.502;2024-01-27T05:56:28;100522.72;;;-4.69;100.00
60970;BME280;46841;48.938;9.502;2024-01-27T05:58:57;100520.69;;;-4.72;100.00
60970;BME280;46841;48.938;9.502;2024-01-27T06:01:23;100531.00;;;-4.95;100.00
60970;BME280;46841;48.938;9.502;2024-01-27T06:03:48;100527.19;;;-4.75;100.00
60970;BME280;46841;48.938;9.502;2024-01-27T06:06:14;100515.53;;;-4.79;100.00
60970;BME280;46841;48.938;9.502;2024-01-27T06:08:40;100515.16;;;-4.89;100.00
60970;BME280;46841;48.938;9.502;2024-01-27T06:11:06;100526.16;;;-4.99;100.00
60970;BME280;46841;48.938;9.502;2024-01-27T06:13:31;100516.28;;;-4.87;100.00
60970;BME280;46841;48.938;9.502;2024-01-27T06:15:58;100520.56;;;-4.87;100.00
60970;BME280;46841;48.938;9.502;2024-01-27T06:18:24;100523.59;;;-5.06;100.00
60970;BME280;46841;48.938;9.502;2024-01-27T06:20:49;100529.69;;;-4.91;100.00
60970;BME280;46841;48.938;9.502;2024-01-27T06:23:15;100532.66;;;-4.88;100.00
60970;BME280;46841;48.938;9.502;2024-01-27T06:25:40;100530.22;;;-4.94;99.92
60970;BME280;46841;48.938;9.502;2024-01-27T06:28:06;100529.19;;;-5.03;100.00
60970;BME280;46841;48.938;9.502;2024-01-27T06:30:31;100539.19;;;-4.92;100.00
60970;BME280;46841;48.938;9.502;2024-01-27T06:32:57;100530.53;;;-5.21;100.00
60970;BME280;46841;48.938;9.502;2024-01-27T06:35:22;100530.56;;;-5.56;98.98
60970;BME280;46841;48.938;9.502;2024-01-27T06:37:48;100532.97;;;-5.36;99.55
60970;BME280;46841;48.938;9.502;2024-01-27T06:40:15;100535.16;;;-5.18;99.96
60970;BME280;46841;48.938;9.502;2024-01-27T06:42:40;100534.06;;;-5.34;99.76
60970;BME280;46841;48.938;9.502;2024-01-27T06:45:06;100533.53;;;-5.46;99.85
60970;BME280;46841;48.938;9.502;2024-01-27T06:47:31;100540.59;;;-5.52;99.64
60970;BME280;46841;48.938;9.502;2024-01-27T06:49:57;100540.78;;;-5.58;99.40
60970;BME280;46841;48.938;9.502;2024-01-27T06:52:22;100550.41;;;-5.21;100.00
60970;BME280;46841;48.938;9.502;2024-01-27T06:54:48;100555.59;;;-5.14;100.00
60970;BME280;46841;48.938;9.502;2024-01-27T06:57:20;100551.50;;;-5.12;99.80
60970;BME280;46841;48.938;9.502;2024-01-27T06:59:47;100542.44;;;-5.51;98.97
60970;BME280;46841;48.938;9.502;2024-01-27T07:02:27;100551.19;;;-5.36;98.80
60970;BME280;46841;48.938;9.502;2024-01-27T07:04:53;100548.78;;;-5.63;98.09
60970;BME280;46841;48.938;9.502;2024-01-27T07:07:26;100552.69;;;-5.46;98.34
60970;BME280;46841;48.938;9.502;2024-01-27T07:09:54;100556.41;;;-5.51;98.13
60970;BME280;46841;48.938;9.502;2024-01-27T07:12:19;100561.59;;;-5.36;98.71
60970;BME280;46841;48.938;9.502;2024-01-27T07:14:44;100558.56;;;-5.11;99.34
60970;BME280;46841;48.938;9.502;2024-01-27T07:17:10;100563.91;;;-4.95;99.59
60970;BME280;46841;48.938;9.502;2024-01-27T07:19:35;100568.63;;;-5.28;98.88
60970;BME280;46841;48.938;9.502;2024-01-27T07:22:01;100563.63;;;-5.27;98.88
60970;BME280;46841;48.938;9.502;2024-01-27T07:24:29;100571.59;;;-5.32;99.01
60970;BME280;46841;48.938;9.502;2024-01-27T07:26:54;100568.28;;;-5.31;99.05
60970;BME280;46841;48.938;9.502;2024-01-27T07:29:20;100571.63;;;-5.39;98.54
60970;BME280;46841;48.938;9.502;2024-01-27T07:31:49;100567.22;;;-4.89;99.09
60970;BME280;46841;48.938;9.502;2024-01-27T07:34:18;100564.63;;;-4.82;99.00
60970;BME280;46841;48.938;9.502;2024-01-27T07:36:46;100564.56;;;-4.75;99.19
60970;BME280;46841;48.938;9.502;2024-01-27T07:39:13;100570.16;;;-4.72;99.10
60970;BME280;46841;48.938;9.502;2024-01-27T07:41:46;100568.25;;;-4.58;99.42
60970;BME280;46841;48.938;9.502;2024-01-27T07:44:18;100565.72;;;-4.35;99.06
60970;BME280;46841;48.938;9.502;2024-01-27T07:46:46;100569.81;;;-4.38;98.92
60970;BME280;46841;48.938;9.502;2024-01-27T07:49:15;100561.34;;;-4.58;98.34
60970;BME280;46841;48.938;9.502;2024-01-27T07:51:40;100568.81;;;-4.61;98.30
60970;BME280;46841;48.938;9.502;2024-01-27T07:54:06;100563.34;;;-4.48;98.82
60970;BME280;46841;48.938;9.502;2024-01-27T07:56:31;100564.59;;;-4.30;99.06
60970;BME280;46841;48.938;9.502;2024-01-27T07:59:01;100567.56;;;-4.34;98.35
60970;BME280;46841;48.938;9.502;2024-01-27T08:01:27;100574.81;;;-4.32;98.04
60970;BME280;46841;48.938;9.502;2024-01-27T08:03:52;100573.28;;;-4.23;98.02
60970;BME280;46841;48.938;9.502;2024-01-27T08:06:27;100574.63;;;-4.26;97.33
60970;BME280;46841;48.938;9.502;2024-01-27T08:09:14;100568.09;;;-3.93;97.99
60970;BME280;46841;48.938;9.502;2024-01-27T08:11:45;100556.22;;;-3.36;97.49
60970;BME280;46841;48.938;9.502;2024-01-27T08:14:11;100555.63;;;-2.79;97.00
60970;BME280;46841;48.938;9.502;2024-01-27T08:16:42;100547.28;;;-2.52;96.23
60970;BME280;46841;48.938;9.502;2024-01-27T08:19:08;100558.38;;;-2.14;96.37
60970;BME280;46841;48.938;9.502;2024-01-27T08:21:36;100558.50;;;-1.72;95.79
60970;BME280;46841;48.938;9.502;2024-01-27T08:24:01;100554.72;;;-1.17;95.63
60970;BME280;46841;48.938;9.502;2024-01-27T08:26:27;100564.44;;;-1.16;93.51
60970;BME280;46841;48.938;9.502;2024-01-27T08:28:53;100561.19;;;-0.71;94.01
60970;BME280;46841;48.938;9.502;2024-01-27T08:31:21;100549.94;;;-0.27;93.99
60970;BME280;46841;48.938;9.502;2024-01-27T08:33:46;100555.16;;;0.16;92.01
60970;BME280;46841;48.938;9.502;2024-01-27T08:36:14;100548.19;;;0.25;90.81
60970;BME280;46841;48.938;9.502;2024-01-27T08:39:08;100547.31;;;0.52;90.12
60970;BME280;46841;48.938;9.502;2024-01-27T08:42:28;100538.50;;;1.62;92.36
60970;BME280;46841;48.938;9.502;2024-01-27T08:45:22;100529.38;;;1.96;91.62
60970;BME280;46841;48.938;9.502;2024-01-27T08:48:00;100522.16;;;2.62;90.37
60970;BME280;46841;48.938;9.502;2024-01-27T08:50:26;100528.28;;;2.81;89.84
60970;BME280;46841;48.938;9.502;2024-01-27T08:52:51;100521.75;;;3.38;91.05
60970;BME280;46841;48.938;9.502;2024-01-27T08:55:19;100512.09;;;3.79;90.23
60970;BME280;46841;48.938;9.502;2024-01-27T08:57:48;100514.25;;;4.05;88.70
60970;BME280;46841;48.938;9.502;2024-01-27T09:00:25;100507.91;;;4.45;85.92
60970;BME280;46841;48.938;9.502;2024-01-27T09:02:51;100497.53;;;4.36;83.37
60970;BME280;46841;48.938;9.502;2024-01-27T09:05:17;100500.94;;;4.35;83.16
60970;BME280;46841;48.938;9.502;2024-01-27T09:07:42;100504.47;;;4.68;81.79
60970;BME280;46841;48.938;9.502;2024-01-27T09:10:08;100497.53;;;4.80;81.56
60970;BME280;46841;48.938;9.502;2024-01-27T09:36:45;100481.84;;;7.16;74.29
60970;BME280;46841;48.938;9.502;2024-01-27T09:44:31;100486.00;;;7.38;70.99
60970;BME280;46841;48.938;9.502;2024-01-27T09:48:18;100491.50;;;7.41;69.80
60970;BME280;46841;48.938;9.502;2024-01-27T09:51:20;100502.31;;;6.69;70.64
60970;BME280;46841;48.938;9.502;2024-01-27T09:54:20;100505.47;;;8.15;75.68
60970;BME280;46841;48.938;9.502;2024-01-27T09:57:13;100506.88;;;7.96;74.66
60970;BME280;46841;48.938;9.502;2024-01-27T10:01:18;100500.94;;;8.14;74.79
60970;BME280;46841;48.938;9.502;2024-01-27T10:04:19;100514.97;;;8.78;73.15
60970;BME280;46841;48.938;9.502;2024-01-27T10:07:41;100531.44;;;6.92;70.81
60970;BME280;46841;48.938;9.502;2024-01-27T10:11:47;100535.91;;;7.30;68.50
60970;BME280;46841;48.938;9.502;2024-01-27T10:15:38;100532.84;;;8.14;69.65
60970;BME280;46841;48.938;9.502;2024-01-27T10:18:07;100522.69;;;7.82;69.29
60970;BME280;46841;48.938;9.502;2024-01-27T10:20:33;100524.88;;;8.80;69.15
60970;BME280;46841;48.938;9.502;2024-01-27T10:23:10;100525.44;;;10.47;71.12
60970;BME280;46841;48.938;9.502;2024-01-27T10:25:39;100521.06;;;10.95;60.74
60970;BME280;46841;48.938;9.502;2024-01-27T10:28:06;100523.94;;;9.49;67.90
60970;BME280;46841;48.938;9.502;2024-01-27T10:30:43;100518.91;;;10.88;64.16
60970;BME280;46841;48.938;9.502;2024-01-27T10:33:12;100519.44;;;11.79;59.92
60970;BME280;46841;48.938;9.502;2024-01-27T10:35:57;100517.47;;;11.93;55.24
60970;BME280;46841;48.938;9.502;2024-01-27T10:38:36;100513.56;;;12.74;61.69
60970;BME280;46841;48.938;9.502;2024-01-27T10:41:08;100500.63;;;13.20;56.19
60970;BME280;46841;48.938;9.502;2024-01-27T10:43:38;100502.81;;;13.09;55.84
60970;BME280;46841;48.938;9.502;2024-01-27T10:46:09;100501.25;;;12.77;53.49
60970;BME280;46841;48.938;9.502;2024-01-27T10:48:35;100502.56;;;12.68;53.88
60970;BME280;46841;48.938;9.502;2024-01-27T10:51:09;100499.22;;;12.18;53.02
60970;BME280;46841;48.938;9.502;2024-01-27T10:53:36;100484.78;;;12.32;56.65
60970;BME280;46841;48.938;9.502;2024-01-27T10:56:05;100476.63;;;13.41;50.15
60970;BME280;46841;48.938;9.502;2024-01-27T10:58:35;100474.44;;;12.95;46.74
60970;BME280;46841;48.938;9.502;2024-01-27T11:01:11;100484.69;;;12.67;48.31
60970;BME280;46841;48.938;9.502;2024-01-27T11:03:38;100481.19;;;14.24;49.03
60970;BME280;46841;48.938;9.502;2024-01-27T11:06:05;100474.78;;;14.21;46.13
60970;BME280;46841;48.938;9.502;2024-01-27T11:08:33;100464.09;;;14.43;44.99
60970;BME280;46841;48.938;9.502;2024-01-27T11:10:59;100480.03;;;12.27;48.38
60970;BME280;46841;48.938;9.502;2024-01-27T11:13:28;100469.72;;;14.07;44.54
60970;BME280;46841;48.938;9.502;2024-01-27T11:15:54;100443.19;;;15.02;42.12
60970;BME280;46841;48.938;9.502;2024-01-27T11:18:20;100445.72;;;15.21;44.25
60970;BME280;46841;48.938;9.502;2024-01-27T11:20:45;100448.22;;;13.85;44.02
60970;BME280;46841;48.938;9.502;2024-01-27T11:23:14;100428.53;;;13.65;40.18
60970;BME280;46841;48.938;9.502;2024-01-27T11:25:40;100432.69;;;12.08;46.81
60970;BME280;46841;48.938;9.502;2024-01-27T11:28:13;100420.47;;;13.44;44.90
60970;BME280;46841;48.938;9.502;2024-01-27T11:30:39;100424.09;;;14.28;41.59
60970;BME280;46841;48.938;9.502;2024-01-27T11:33:05;100418.84;;;14.75;41.85
60970;BME280;46841;48.938;9.502;2024-01-27T11:35:30;100411.69;;;15.22;40.88
60970;BME280;46841;48.938;9.502;2024-01-27T11:37:56;100402.81;;;15.72;40.13
60970;BME280;46841;48.938;9.502;2024-01-27T11:40:21;100409.38;;;15.32;40.65
60970;BME280;46841;48.938;9.502;2024-01-27T11:42:57;100396.28;;;13.43;41.27
60970;BME280;46841;48.938;9.502;2024-01-27T11:45:23;100402.50;;;12.66;43.68
60970;BME280;46841;48.938;9.502;2024-01-27T11:47:49;100394.69;;;15.47;40.45
60970;BME280;46841;48.938;9.502;2024-01-27T11:50:19;100396.47;;;16.23;36.98
60970;BME280;46841;48.938;9.502;2024-01-27T11:52:46;100385.22;;;17.22;35.80
60970;BME280;46841;48.938;9.502;2024-01-27T11:55:13;100380.59;;;17.81;35.25
60970;BME280;46841;48.938;9.502;2024-01-27T11:57:41;100383.25;;;17.79;33.45
60970;BME280;46841;48.938;9.502;2024-01-27T12:00:09;100384.00;;;17.10;34.84
60970;BME280;46841;48.938;9.502;2024-01-27T12:02:35;100373.69;;;16.68;35.81
60970;BME280;46841;48.938;9.502;2024-01-27T12:05:01;100364.50;;;16.90;35.26
60970;BME280;46841;48.938;9.502;2024-01-27T12:07:28;100354.47;;;17.48;35.27
60970;BME280;46841;48.938;9.502;2024-01-27T12:09:53;100350.19;;;18.63;32.10
60970;BME280;46841;48.938;9.502;2024-01-27T12:12:20;100351.66;;;18.49;32.24
60970;BME280;46841;48.938;9.502;2024-01-27T12:14:46;100352.53;;;18.48;31.61
60970;BME280;46841;48.938;9.502;2024-01-27T12:17:12;100353.97;;;17.30;32.16
60970;BME280;46841;48.938;9.502;2024-01-27T12:19:38;100350.56;;;18.03;31.51
60970;BME280;46841;48.938;9.502;2024-01-27T12:22:05;100345.56;;;18.20;31.85
60970;BME280;46841;48.938;9.502;2024-01-27T12:24:43;100342.59;;;18.45;30.34
60970;BME280;46841;48.938;9.502;2024-01-27T12:27:09;100337.47;;;18.20;31.25
60970;BME280;46841;48.938;9.502;2024-01-27T12:29:34;100338.47;;;17.87;31.13
60970;BME280;46841;48.938;9.502;2024-01-27T12:32:00;100345.41;;;17.78;34.04
60970;BME280;46841;48.938;9.502;2024-01-27T12:34:25;100342.94;;;18.61;29.71
60970;BME280;46841;48.938;9.502;2024-01-27T12:36:52;100342.38;;;18.36;30.49
60970;BME280;46841;48.938;9.502;2024-01-27T12:39:17;100343.03;;;18.64;29.72
60970;BME280;46841;48.938;9.502;2024-01-27T12:41:43;100342.13;;;18.26;31.09
60970;BME280;46841;48.938;9.502;2024-01-27T12:44:08;100339.53;;;17.61;32.24
60970;BME280;46841;48.938;9.502;2024-01-27T12:46:34;100347.31;;;18.54;30.45
60970;BME280;46841;48.938;9.502;2024-01-27T12:48:59;100336.09;;;18.37;30.35
60970;BME280;46841;48.938;9.502;2024-01-27T12:51:25;100332.50;;;19.20;29.34
60970;BME280;46841;48.938;9.502;2024-01-27T12:53:53;100336.06;;;19.61;28.54
60970;BME280;46841;48.938;9.502;2024-01-27T12:56:19;100334.72;;;18.95;29.24
60970;BME280;46841;48.938;9.502;2024-01-27T12:58:45;100332.38;;;18.32;32.71
60970;BME280;46841;48.938;9.502;2024-01-27T13:01:10;100333.97;;;18.63;34.24
60970;BME280;46841;48.938;9.502;2024-01-27T13:03:36;100322.78;;;19.77;30.03
60970;BME280;46841;48.938;9.502;2024-01-27T13:06:02;100317.00;;;19.58;30.12
60970;BME280;46841;48.938;9.502;2024-01-27T13:08:28;100317.63;;;19.90;29.39
60970;BME280;46841;48.938;9.502;2024-01-27T13:10:54;100308.56;;;20.46;27.67
60970;BME280;46841;48.938;9.502;2024-01-27T13:13:20;100327.59;;;18.99;30.07
60970;BME280;46841;48.938;9.502;2024-01-27T13:15:46;100328.72;;;19.57;29.12
60970;BME280;46841;48.938;9.502;2024-01-27T13:18:11;100326.97;;;19.14;30.07
60970;BME280;46841;48.938;9.502;2024-01-27T13:20:37;100336.22;;;18.43;31.54
60970;BME280;46841;48.938;9.502;2024-01-27T13:23:03;100336.31;;;18.10;33.31